sensor_id;sensor_type;location;lat;lon;timestamp;pressure;altitude;pressure_sealevel;temperature;humidity
17781;BME280;8498;52.516;13.790;2023-08-08T00:00:21;100385.13;;;16.34;71.53
17781;BME280;8498;52.516;13.790;2023-08-08T00:05:43;100390.91;;;16.39;70.69
17781;BME280;8498;52.516;13.790;2023-08-08T00:11:05;100385.78;;;16.45;69.84
17781;BME280;8498;52.516;13.790;2023-08-08T00:16:28;100391.19;;;16.36;69.27
17781;BME280;8498;52.516;13.790;2023-08-08T00:21:50;100398.59;;;16.24;69.87
17781;BME280;8498;52.516;13.790;2023-08-08T00:27:13;100391.88;;;16.10;70.30
17781;BME280;8498;52.516;13.790;2023-08-08T00:32:35;100386.81;;;16.07;71.00
17781;BME280;8498;52.516;13.790;2023-08-08T00:37:58;100397.72;;;15.96;71.89
17781;BME280;8498;52.516;13.790;2023-08-08T00:43:20;100388.00;;;15.86;72.64
17781;BME280;8498;52.516;13.790;2023-08-08T00:48:42;100390.13;;;15.82;73.30
17781;BME280;8498;52.516;13.790;2023-08-08T00:54:05;100407.22;;;15.71;73.94
17781;BME280;8498;52.516;13.790;2023-08-08T00:59:27;100400.19;;;15.61;74.54
17781;BME280;8498;52.516;13.790;2023-08-08T01:04:50;100398.09;;;15.55;74.90
17781;BME280;8498;52.516;13.790;2023-08-08T01:10:15;100393.97;;;15.51;74.85
17781;BME280;8498;52.516;13.790;2023-08-08T01:15:41;100408.91;;;15.43;75.40
17781;BME280;8498;52.516;13.790;2023-08-08T01:21:04;100414.28;;;15.43;75.15
17781;BME280;8498;52.516;13.790;2023-08-08T01:26:27;100402.84;;;15.41;75.51
17781;BME280;8498;52.516;13.790;2023-08-08T01:31:49;100401.59;;;15.46;75.33
17781;BME280;8498;52.516;13.790;2023-08-08T01:37:22;100411.03;;;15.30;75.32
17781;BME280;8498;52.516;13.790;2023-08-08T01:42:48;100403.84;;;15.21;74.91
17781;BME280;8498;52.516;13.790;2023-08-08T01:48:11;100402.44;;;15.17;74.74
17781;BME280;8498;52.516;13.790;2023-08-08T01:53:34;100404.84;;;15.20;74.46
17781;BME280;8498;52.516;13.790;2023-08-08T01:58:56;100384.13;;;15.22;74.09
17781;BME280;8498;52.516;13.790;2023-08-08T02:04:20;100387.09;;;15.19;73.47
17781;BME280;8498;52.516;13.790;2023-08-08T02:09:42;100379.50;;;15.24;72.75
17781;BME280;8498;52.516;13.790;2023-08-08T02:15:05;100380.47;;;15.23;72.44
17781;BME280;8498;52.516;13.790;2023-08-08T02:20:28;100370.63;;;15.14;71.90
17781;BME280;8498;52.516;13.790;2023-08-08T02:25:50;100364.84;;;15.19;71.87
17781;BME280;8498;52.516;13.790;2023-08-08T02:31:13;100365.81;;;15.08;72.30
17781;BME280;8498;52.516;13.790;2023-08-08T02:36:42;100372.88;;;15.09;72.38
17781;BME280;8498;52.516;13.790;2023-08-08T02:42:05;100370.75;;;15.03;72.50
17781;BME280;8498;52.516;13.790;2023-08-08T02:47:28;100380.34;;;15.15;72.19
17781;BME280;8498;52.516;13.790;2023-08-08T02:52:51;100367.25;;;15.12;72.36
17781;BME280;8498;52.516;13.790;2023-08-08T02:58:17;100364.44;;;15.14;72.53
17781;BME280;8498;52.516;13.790;2023-08-08T03:03:40;100375.66;;;14.98;73.53
17781;BME280;8498;52.516;13.790;2023-08-08T03:09:03;100374.56;;;15.00;73.80
17781;BME280;8498;52.516;13.790;2023-08-08T03:14:27;100379.63;;;14.94;74.25
17781;BME280;8498;52.516;13.790;2023-08-08T03:19:50;100365.41;;;14.93;74.84
17781;BME280;8498;52.516;13.790;2023-08-08T03:25:13;100359.47;;;14.80;76.40
17781;BME280;8498;52.516;13.790;2023-08-08T03:30:37;100354.13;;;14.71;77.42
17781;BME280;8498;52.516;13.790;2023-08-08T03:36:02;100357.06;;;14.77;77.40
17781;BME280;8498;52.516;13.790;2023-08-08T03:41:25;100376.50;;;14.69;78.05
17781;BME280;8498;52.516;13.790;2023-08-08T03:46:48;100370.00;;;14.62;78.83
17781;BME280;8498;52.516;13.790;2023-08-08T03:52:14;100380.69;;;14.53;79.74
17781;BME280;8498;52.516;13.790;2023-08-08T03:57:37;100372.25;;;14.57;79.99
17781;BME280;8498;52.516;13.790;2023-08-08T04:02:59;100385.88;;;14.64;80.12
17781;BME280;8498;52.516;13.790;2023-08-08T04:08:22;100382.41;;;14.63;80.61
17781;BME280;8498;52.516;13.790;2023-08-08T04:13:47;100377.06;;;14.63;81.14
17781;BME280;8498;52.516;13.790;2023-08-08T04:19:09;100379.16;;;14.69;81.20
17781;BME280;8498;52.516;13.790;2023-08-08T04:24:32;100377.47;;;14.78;81.15
17781;BME280;8498;52.516;13.790;2023-08-08T04:29:54;100363.00;;;14.81;81.92
17781;BME280;8498;52.516;13.790;2023-08-08T04:35:17;100372.00;;;14.80;81.92
17781;BME280;8498;52.516;13.790;2023-08-08T04:40:40;100367.50;;;14.80;82.42
17781;BME280;8498;52.516;13.790;2023-08-08T04:46:02;100361.19;;;14.91;82.21
17781;BME280;8498;52.516;13.790;2023-08-08T04:51:25;100365.53;;;14.92;82.27
17781;BME280;8498;52.516;13.790;2023-08-08T04:56:47;100371.59;;;14.94;82.48
17781;BME280;8498;52.516;13.790;2023-08-08T05:02:10;100365.69;;;15.00;82.69
17781;BME280;8498;52.516;13.790;2023-08-08T05:07:33;100380.31;;;14.96;83.13
17781;BME280;8498;52.516;13.790;2023-08-08T05:12:58;100378.78;;;15.03;83.01
17781;BME280;8498;52.516;13.790;2023-08-08T05:18:21;100381.31;;;15.14;82.89
17781;BME280;8498;52.516;13.790;2023-08-08T05:23:43;100378.78;;;15.22;82.83
17781;BME280;8498;52.516;13.790;2023-08-08T05:29:05;100379.50;;;15.15;82.75
17781;BME280;8498;52.516;13.790;2023-08-08T05:34:28;100377.34;;;15.28;82.82
17781;BME280;8498;52.516;13.790;2023-08-08T05:39:50;100370.16;;;15.28;82.96
17781;BME280;8498;52.516;13.790;2023-08-08T05:45:14;100377.66;;;15.34;82.40
17781;BME280;8498;52.516;13.790;2023-08-08T05:50:38;100379.34;;;15.35;82.56
17781;BME280;8498;52.516;13.790;2023-08-08T05:56:00;100382.97;;;15.54;82.21
17781;BME280;8498;52.516;13.790;2023-08-08T06:01:23;100386.50;;;15.64;81.82
17781;BME280;8498;52.516;13.790;2023-08-08T06:06:45;100384.06;;;15.80;81.22
17781;BME280;8498;52.516;13.790;2023-08-08T06:12:11;100374.75;;;15.84;80.89
17781;BME280;8498;52.516;13.790;2023-08-08T06:17:34;100372.16;;;16.02;80.22
17781;BME280;8498;52.516;13.790;2023-08-08T06:22:56;100389.63;;;16.06;80.60
17781;BME280;8498;52.516;13.790;2023-08-08T06:28:19;100388.19;;;16.11;79.85
17781;BME280;8498;52.516;13.790;2023-08-08T06:33:41;100380.81;;;16.23;80.05
17781;BME280;8498;52.516;13.790;2023-08-08T06:39:03;100384.44;;;16.32;79.95
17781;BME280;8498;52.516;13.790;2023-08-08T06:44:28;100379.72;;;16.43;79.45
17781;BME280;8498;52.516;13.790;2023-08-08T06:49:50;100382.69;;;16.40;79.13
17781;BME280;8498;52.516;13.790;2023-08-08T06:55:12;100377.81;;;16.63;78.45
17781;BME280;8498;52.516;13.790;2023-08-08T07:00:35;100381.78;;;16.59;78.64
17781;BME280;8498;52.516;13.790;2023-08-08T07:05:57;100386.56;;;16.65;79.23
17781;BME280;8498;52.516;13.790;2023-08-08T07:11:20;100386.25;;;16.68;78.47
17781;BME280;8498;52.516;13.790;2023-08-08T07:16:42;100391.38;;;16.62;79.21
17781;BME280;8498;52.516;13.790;2023-08-08T07:22:05;100388.72;;;16.79;78.15
17781;BME280;8498;52.516;13.790;2023-08-08T07:27:28;100399.31;;;16.99;78.35
17781;BME280;8498;52.516;13.790;2023-08-08T07:32:50;100395.78;;;17.16;76.79
17781;BME280;8498;52.516;13.790;2023-08-08T07:38:13;100403.25;;;17.22;75.95
17781;BME280;8498;52.516;13.790;2023-08-08T07:43:36;100396.25;;;17.65;75.65
17781;BME280;8498;52.516;13.790;2023-08-08T07:48:58;100394.81;;;17.78;74.13
17781;BME280;8498;52.516;13.790;2023-08-08T07:54:25;100404.59;;;17.61;73.19
17781;BME280;8498;52.516;13.790;2023-08-08T07:59:47;100395.00;;;17.59;72.90
17781;BME280;8498;52.516;13.790;2023-08-08T08:05:10;100390.03;;;17.90;73.04
17781;BME280;8498;52.516;13.790;2023-08-08T08:10:33;100383.56;;;18.34;70.45
17781;BME280;8498;52.516;13.790;2023-08-08T08:15:56;100391.97;;;18.40;69.52
17781;BME280;8498;52.516;13.790;2023-08-08T08:21:18;100395.94;;;18.27;70.73
17781;BME280;8498;52.516;13.790;2023-08-08T08:26:41;100388.25;;;18.32;69.76
17781;BME280;8498;52.516;13.790;2023-08-08T08:32:04;100386.88;;;18.28;70.01
17781;BME280;8498;52.516;13.790;2023-08-08T08:37:26;100391.78;;;18.33;69.98
17781;BME280;8498;52.516;13.790;2023-08-08T08:42:49;100376.94;;;18.63;68.92
17781;BME280;8498;52.516;13.790;2023-08-08T08:48:14;100376.63;;;18.66;68.19
17781;BME280;8498;52.516;13.790;2023-08-08T08:53:40;100363.72;;;18.78;67.83
17781;BME280;8498;52.516;13.790;2023-08-08T08:59:05;100376.97;;;18.79;67.02
17781;BME280;8498;52.516;13.790;2023-08-08T09:04:29;100375.03;;;18.97;64.05
17781;BME280;8498;52.516;13.790;2023-08-08T09:09:52;100363.41;;;18.97;65.91
17781;BME280;8498;52.516;13.790;2023-08-08T09:15:15;100373.00;;;19.16;64.75
17781;BME280;8498;52.516;13.790;2023-08-08T09:20:38;100369.31;;;19.25;63.65
17781;BME280;8498;52.516;13.790;2023-08-08T09:26:03;100356.38;;;19.28;63.27
17781;BME280;8498;52.516;13.790;2023-08-08T09:31:27;100368.66;;;19.31;63.52
17781;BME280;8498;52.516;13.790;2023-08-08T09:36:50;100363.59;;;19.20;63.34
17781;BME280;8498;52.516;13.790;2023-08-08T09:42:13;100357.72;;;19.49;64.12
17781;BME280;8498;52.516;13.790;2023-08-08T09:47:37;100371.00;;;19.66;61.14
17781;BME280;8498;52.516;13.790;2023-08-08T09:53:00;100347.69;;;19.98;60.76
17781;BME280;8498;52.516;13.790;2023-08-08T09:58:25;100349.50;;;20.05;58.86
17781;BME280;8498;52.516;13.790;2023-08-08T10:03:51;100346.44;;;20.16;58.42
17781;BME280;8498;52.516;13.790;2023-08-08T10:09:14;100348.41;;;20.70;56.24
17781;BME280;8498;52.516;13.790;2023-08-08T10:14:37;100331.16;;;21.02;56.33
17781;BME280;8498;52.516;13.790;2023-08-08T10:20:03;100315.56;;;21.35;53.43
17781;BME280;8498;52.516;13.790;2023-08-08T10:25:33;100322.84;;;20.58;55.38
17781;BME280;8498;52.516;13.790;2023-08-08T10:30:57;100339.56;;;20.06;61.75
17781;BME280;8498;52.516;13.790;2023-08-08T10:36:19;100345.25;;;19.64;65.44
17781;BME280;8498;52.516;13.790;2023-08-08T10:41:50;100328.41;;;19.54;64.81
17781;BME280;8498;52.516;13.790;2023-08-08T10:47:13;100339.19;;;19.46;61.49
17781;BME280;8498;52.516;13.790;2023-08-08T10:52:55;100316.03;;;19.84;61.83
17781;BME280;8498;52.516;13.790;2023-08-08T10:58:17;100303.31;;;20.78;56.73
17781;BME280;8498;52.516;13.790;2023-08-08T11:03:44;100291.06;;;21.51;54.17
17781;BME280;8498;52.516;13.790;2023-08-08T11:09:08;100316.16;;;20.99;55.32
17781;BME280;8498;52.516;13.790;2023-08-08T11:14:32;100318.28;;;21.49;50.75
17781;BME280;8498;52.516;13.790;2023-08-08T11:19:54;100306.88;;;21.24;50.18
17781;BME280;8498;52.516;13.790;2023-08-08T11:25:17;100318.47;;;22.00;50.95
17781;BME280;8498;52.516;13.790;2023-08-08T11:30:45;100307.84;;;21.61;51.81
17781;BME280;8498;52.516;13.790;2023-08-08T11:36:08;100305.25;;;21.97;51.02
17781;BME280;8498;52.516;13.790;2023-08-08T11:41:31;100306.13;;;22.63;50.47
17781;BME280;8498;52.516;13.790;2023-08-08T11:46:54;100293.91;;;22.88;50.38
17781;BME280;8498;52.516;13.790;2023-08-08T11:52:18;100295.38;;;23.12;49.19
17781;BME280;8498;52.516;13.790;2023-08-08T11:57:41;100299.91;;;21.59;53.00
17781;BME280;8498;52.516;13.790;2023-08-08T12:03:03;100353.19;;;20.21;61.71
17781;BME280;8498;52.516;13.790;2023-08-08T12:08:30;100347.25;;;19.78;66.19
17781;BME280;8498;52.516;13.790;2023-08-08T12:13:59;100343.91;;;19.60;66.16
17781;BME280;8498;52.516;13.790;2023-08-08T12:19:23;100328.34;;;19.86;62.81
17781;BME280;8498;52.516;13.790;2023-08-08T12:24:46;100333.00;;;20.56;58.13
17781;BME280;8498;52.516;13.790;2023-08-08T12:30:09;100329.13;;;20.81;57.60
17781;BME280;8498;52.516;13.790;2023-08-08T12:35:32;100322.28;;;21.16;54.91
17781;BME280;8498;52.516;13.790;2023-08-08T12:40:54;100316.97;;;21.60;54.18
17781;BME280;8498;52.516;13.790;2023-08-08T12:46:16;100322.34;;;21.97;51.96
17781;BME280;8498;52.516;13.790;2023-08-08T12:51:39;100320.38;;;22.72;51.85
17781;BME280;8498;52.516;13.790;2023-08-08T12:57:02;100316.84;;;22.20;52.63
17781;BME280;8498;52.516;13.790;2023-08-08T13:02:24;100326.59;;;21.48;53.23
17781;BME280;8498;52.516;13.790;2023-08-08T13:07:47;100321.84;;;21.04;54.88
17781;BME280;8498;52.516;13.790;2023-08-08T13:13:10;100328.53;;;21.16;54.22
17781;BME280;8498;52.516;13.790;2023-08-08T13:18:33;100318.75;;;21.53;52.48
17781;BME280;8498;52.516;13.790;2023-08-08T13:23:55;100311.81;;;22.03;50.60
17781;BME280;8498;52.516;13.790;2023-08-08T13:29:18;100314.50;;;21.73;51.12
17781;BME280;8498;52.516;13.790;2023-08-08T13:34:40;100314.66;;;21.57;53.25
17781;BME280;8498;52.516;13.790;2023-08-08T13:40:03;100309.88;;;21.44;55.19
17781;BME280;8498;52.516;13.790;2023-08-08T13:45:28;100300.13;;;21.58;54.96
17781;BME280;8498;52.516;13.790;2023-08-08T13:50:50;100300.38;;;22.01;53.32
17781;BME280;8498;52.516;13.790;2023-08-08T13:56:13;100294.13;;;22.51;51.57
17781;BME280;8498;52.516;13.790;2023-08-08T14:01:36;100297.53;;;21.79;51.46
17781;BME280;8498;52.516;13.790;2023-08-08T14:06:59;100336.97;;;21.13;53.97
17781;BME280;8498;52.516;13.790;2023-08-08T14:12:21;100360.13;;;18.61;79.00
17781;BME280;8498;52.516;13.790;2023-08-08T14:17:43;100354.06;;;17.83;86.46
17781;BME280;8498;52.516;13.790;2023-08-08T14:23:07;100346.59;;;18.03;89.01
17781;BME280;8498;52.516;13.790;2023-08-08T14:28:30;100340.41;;;18.10;90.33
17781;BME280;8498;52.516;13.790;2023-08-08T14:33:52;100339.16;;;18.30;89.80
17781;BME280;8498;52.516;13.790;2023-08-08T14:39:14;100344.25;;;19.16;85.22
17781;BME280;8498;52.516;13.790;2023-08-08T14:44:37;100348.09;;;19.62;81.26
17781;BME280;8498;52.516;13.790;2023-08-08T14:50:00;100341.59;;;20.04;75.83
17781;BME280;8498;52.516;13.790;2023-08-08T14:55:23;100347.91;;;20.27;71.77
17781;BME280;8498;52.516;13.790;2023-08-08T15:00:48;100341.72;;;20.58;70.28
17781;BME280;8498;52.516;13.790;2023-08-08T15:06:14;100342.50;;;20.74;67.85
17781;BME280;8498;52.516;13.790;2023-08-08T15:11:37;100359.72;;;20.96;65.44
17781;BME280;8498;52.516;13.790;2023-08-08T15:16:59;100353.75;;;21.32;62.98
17781;BME280;8498;52.516;13.790;2023-08-08T15:22:22;100356.16;;;21.27;61.31
17781;BME280;8498;52.516;13.790;2023-08-08T15:27:46;100343.63;;;20.80;62.37
17781;BME280;8498;52.516;13.790;2023-08-08T15:33:08;100353.53;;;20.57;64.88
17781;BME280;8498;52.516;13.790;2023-08-08T15:38:31;100360.94;;;20.24;65.83
17781;BME280;8498;52.516;13.790;2023-08-08T15:43:53;100351.94;;;19.84;67.69
17781;BME280;8498;52.516;13.790;2023-08-08T15:49:16;100362.06;;;19.74;70.78
17781;BME280;8498;52.516;13.790;2023-08-08T15:54:39;100380.59;;;19.36;74.01
17781;BME280;8498;52.516;13.790;2023-08-08T16:00:01;100446.16;;;18.53;83.87
17781;BME280;8498;52.516;13.790;2023-08-08T16:05:33;100421.63;;;17.17;85.50
17781;BME280;8498;52.516;13.790;2023-08-08T16:10:56;100423.59;;;16.79;91.63
17781;BME280;8498;52.516;13.790;2023-08-08T16:16:18;100418.53;;;16.76;97.14
17781;BME280;8498;52.516;13.790;2023-08-08T16:21:41;100404.06;;;17.40;98.04
17781;BME280;8498;52.516;13.790;2023-08-08T16:27:03;100390.19;;;17.63;96.69
17781;BME280;8498;52.516;13.790;2023-08-08T16:32:28;100386.03;;;17.50;93.45
17781;BME280;8498;52.516;13.790;2023-08-08T16:37:51;100415.03;;;17.47;92.54
17781;BME280;8498;52.516;13.790;2023-08-08T16:43:13;100434.97;;;17.44;94.96
17781;BME280;8498;52.516;13.790;2023-08-08T16:48:36;100435.44;;;17.40;97.68
17781;BME280;8498;52.516;13.790;2023-08-08T16:53:58;100445.44;;;17.30;97.95
17781;BME280;8498;52.516;13.790;2023-08-08T16:59:22;100455.47;;;17.10;99.29
17781;BME280;8498;52.516;13.790;2023-08-08T17:04:45;100471.00;;;16.88;98.28
17781;BME280;8498;52.516;13.790;2023-08-08T17:10:08;100451.72;;;16.75;99.24
17781;BME280;8498;52.516;13.790;2023-08-08T17:15:32;100450.22;;;16.91;100.00
17781;BME280;8498;52.516;13.790;2023-08-08T17:20:55;100450.47;;;16.97;100.00
17781;BME280;8498;52.516;13.790;2023-08-08T17:26:18;100440.28;;;17.01;100.00
17781;BME280;8498;52.516;13.790;2023-08-08T17:31:40;100430.81;;;16.97;99.46
17781;BME280;8498;52.516;13.790;2023-08-08T17:37:03;100428.75;;;16.91;100.00
17781;BME280;8498;52.516;13.790;2023-08-08T17:42:25;100427.66;;;16.83;99.68
17781;BME280;8498;52.516;13.790;2023-08-08T17:47:48;100425.97;;;16.82;100.00
17781;BME280;8498;52.516;13.790;2023-08-08T17:53:10;100432.88;;;16.85;100.00
17781;BME280;8498;52.516;13.790;2023-08-08T17:58:33;100431.94;;;16.76;100.00
17781;BME280;8498;52.516;13.790;2023-08-08T18:03:55;100427.97;;;16.80;100.00
17781;BME280;8498;52.516;13.790;2023-08-08T18:09:18;100422.06;;;16.77;98.33
17781;BME280;8498;52.516;13.790;2023-08-08T18:14:40;100423.91;;;16.76;98.48
17781;BME280;8498;52.516;13.790;2023-08-08T18:20:03;100431.94;;;16.76;99.03
17781;BME280;8498;52.516;13.790;2023-08-08T18:25:29;100431.94;;;16.76;99.44
17781;BME280;8498;52.516;13.790;2023-08-08T18:30:52;100443.09;;;16.72;99.03
17781;BME280;8498;52.516;13.790;2023-08-08T18:36:14;100436.59;;;16.74;100.00
17781;BME280;8498;52.516;13.790;2023-08-08T18:41:39;100454.19;;;16.59;100.00
17781;BME280;8498;52.516;13.790;2023-08-08T18:47:01;100458.19;;;16.45;99.92
17781;BME280;8498;52.516;13.790;2023-08-08T18:52:24;100458.31;;;16.44;100.00
17781;BME280;8498;52.516;13.790;2023-08-08T18:57:46;100473.53;;;16.53;99.77
17781;BME280;8498;52.516;13.790;2023-08-08T19:03:09;100481.44;;;16.55;98.44
17781;BME280;8498;52.516;13.790;2023-08-08T19:08:31;100485.13;;;16.44;97.44
17781;BME280;8498;52.516;13.790;2023-08-08T19:13:54;100485.94;;;16.54;98.43
17781;BME280;8498;52.516;13.790;2023-08-08T19:19:16;100483.72;;;16.49;97.78
17781;BME280;8498;52.516;13.790;2023-08-08T19:24:38;100491.34;;;16.44;97.28
17781;BME280;8498;52.516;13.790;2023-08-08T19:30:01;100496.47;;;16.38;98.07
17781;BME280;8498;52.516;13.790;2023-08-08T19:35:24;100497.03;;;16.32;99.19
17781;BME280;8498;52.516;13.790;2023-08-08T19:40:47;100489.16;;;16.21;100.00
17781;BME280;8498;52.516;13.790;2023-08-08T19:46:09;100493.56;;;16.12;100.00
17781;BME280;8498;52.516;13.790;2023-08-08T19:51:32;100491.72;;;16.12;100.00
17781;BME280;8498;52.516;13.790;2023-08-08T19:56:55;100491.00;;;16.10;100.00
17781;BME280;8498;52.516;13.790;2023-08-08T20:02:18;100495.69;;;16.08;100.00
17781;BME280;8498;52.516;13.790;2023-08-08T20:07:40;100495.69;;;16.08;100.00
17781;BME280;8498;52.516;13.790;2023-08-08T20:13:03;100501.34;;;16.05;100.00
17781;BME280;8498;52.516;13.790;2023-08-08T20:18:26;100499.91;;;16.01;100.00
17781;BME280;8498;52.516;13.790;2023-08-08T20:23:48;100496.84;;;15.96;100.00
17781;BME280;8498;52.516;13.790;2023-08-08T20:29:11;100503.91;;;15.97;100.00
17781;BME280;8498;52.516;13.790;2023-08-08T20:34:34;100505.88;;;15.95;100.00
17781;BME280;8498;52.516;13.790;2023-08-08T20:39:57;100502.06;;;15.88;100.00
17781;BME280;8498;52.516;13.790;2023-08-08T20:45:20;100511.94;;;15.88;100.00
17781;BME280;8498;52.516;13.790;2023-08-08T20:50:43;100515.47;;;15.88;100.00
17781;BME280;8498;52.516;13.790;2023-08-08T20:56:05;100531.69;;;15.77;100.00
17781;BME280;8498;52.516;13.790;2023-08-08T21:01:28;100544.22;;;15.67;100.00
17781;BME280;8498;52.516;13.790;2023-08-08T21:06:50;100533.22;;;15.60;100.00
17781;BME280;8498;52.516;13.790;2023-08-08T21:12:12;100533.03;;;15.52;100.00
17781;BME280;8498;52.516;13.790;2023-08-08T21:17:37;100530.63;;;15.39;100.00
17781;BME280;8498;52.516;13.790;2023-08-08T21:23:05;100537.28;;;15.45;100.00
17781;BME280;8498;52.516;13.790;2023-08-08T21:28:27;100538.25;;;15.44;100.00
17781;BME280;8498;52.516;13.790;2023-08-08T21:33:51;100558.81;;;15.43;100.00
17781;BME280;8498;52.516;13.790;2023-08-08T21:39:14;100603.59;;;15.32;100.00
17781;BME280;8498;52.516;13.790;2023-08-08T21:44:36;100589.53;;;15.39;100.00
17781;BME280;8498;52.516;13.790;2023-08-08T21:49:58;100594.44;;;15.34;100.00
17781;BME280;8498;52.516;13.790;2023-08-08T21:55:21;100594.00;;;15.29;100.00
17781;BME280;8498;52.516;13.790;2023-08-08T22:00:44;100584.16;;;15.30;100.00
17781;BME280;8498;52.516;13.790;2023-08-08T22:06:06;100582.16;;;15.22;100.00
17781;BME280;8498;52.516;13.790;2023-08-08T22:11:29;100578.75;;;15.20;100.00
17781;BME280;8498;52.516;13.790;2023-08-08T22:16:52;100569.75;;;15.21;100.00
17781;BME280;8498;52.516;13.790;2023-08-08T22:22:14;100559.78;;;15.23;100.00
17781;BME280;8498;52.516;13.790;2023-08-08T22:27:37;100565.38;;;15.20;100.00
17781;BME280;8498;52.516;13.790;2023-08-08T22:32:59;100567.47;;;15.17;100.00
17781;BME280;8498;52.516;13.790;2023-08-08T22:38:22;100568.06;;;15.20;100.00
17781;BME280;8498;52.516;13.790;2023-08-08T22:43:44;100575.34;;;15.09;100.00
17781;BME280;8498;52.516;13.790;2023-08-08T22:49:06;100581.69;;;15.07;100.00
17781;BME280;8498;52.516;13.790;2023-08-08T22:54:29;100567.03;;;15.02;100.00
17781;BME280;8498;52.516;13.790;2023-08-08T22:59:52;100571.47;;;14.82;100.00
17781;BME280;8498;52.516;13.790;2023-08-08T23:05:14;100571.84;;;14.78;100.00
17781;BME280;8498;52.516;13.790;2023-08-08T23:10:37;100567.56;;;14.65;100.00
17781;BME280;8498;52.516;13.790;2023-08-08T23:15:59;100561.19;;;14.57;100.00
17781;BME280;8498;52.516;13.790;2023-08-08T23:21:22;100567.50;;;14.56;100.00
17781;BME280;8498;52.516;13.790;2023-08-08T23:26:44;100561.53;;;14.63;100.00
17781;BME280;8498;52.516;13.790;2023-08-08T23:32:07;100567.03;;;14.72;100.00
17781;BME280;8498;52.516;13.790;2023-08-08T23:37:29;100558.09;;;14.82;100.00
17781;BME280;8498;52.516;13.790;2023-08-08T23:42:52;100557.25;;;14.82;100.00
17781;BME280;8498;52.516;13.790;2023-08-08T23:48:15;100545.81;;;14.80;100.00
17781;BME280;8498;52.516;13.790;2023-08-08T23:53:37;100555.81;;;14.78;100.00
17781;BME280;8498;52.516;13.790;2023-08-08T23:59:00;100553.00;;;14.79;100.00
